createdAt,value
2022-12-07T00:02:03.717Z,100239.78
2022-12-07T00:04:51.417Z,100236.19
2022-12-07T00:07:27.905Z,100237.72
2022-12-07T00:16:02.731Z,100223.00
2022-12-07T00:18:48.060Z,100213.34
2022-12-07T00:21:19.698Z,100213.88
2022-12-07T00:23:51.128Z,100216.09
2022-12-07T00:26:28.634Z,100206.25
2022-12-07T00:29:03.847Z,100209.47
2022-12-07T00:31:35.137Z,100212.50
2022-12-07T00:34:28.891Z,100207.06
2022-12-07T00:36:57.524Z,100199.88
2022-12-07T00:39:26.070Z,100204.91
2022-12-07T00:42:19.751Z,100199.88
2022-12-07T00:44:49.443Z,100200.06
2022-12-07T00:47:20.957Z,100191.84
2022-12-07T00:49:52.322Z,100181.13
2022-12-07T00:52:24.068Z,100181.53
2022-12-07T00:55:00.191Z,100175.59
2022-12-07T00:57:44.566Z,100173.38
2022-12-07T01:00:17.389Z,100175.63
2022-12-07T01:02:59.300Z,100176.31
2022-12-07T01:05:30.767Z,100170.22
2022-12-07T01:08:00.201Z,100173.53
2022-12-07T01:10:32.702Z,100176.47
2022-12-07T01:13:05.577Z,100183.78
2022-12-07T01:15:41.602Z,100172.88
2022-12-07T01:18:10.524Z,100172.22
2022-12-07T01:20:43.007Z,100171.41
2022-12-07T01:23:15.629Z,100180.84
2022-12-07T01:25:49.163Z,100173.13
2022-12-07T01:31:01.936Z,100184.63
2022-12-07T01:33:32.852Z,100184.03
2022-12-07T01:36:11.748Z,100181.06
2022-12-07T01:39:00.849Z,100181.53
2022-12-07T01:41:49.596Z,100182.34
2022-12-07T01:44:36.243Z,100185.88
2022-12-07T01:47:05.995Z,100183.25
2022-12-07T01:49:55.956Z,100193.06
2022-12-07T01:52:25.783Z,100178.81
2022-12-07T01:55:01.582Z,100184.25
2022-12-07T01:57:48.892Z,100178.72
2022-12-07T02:00:33.814Z,100180.53
2022-12-07T02:05:55.522Z,100173.75
2022-12-07T02:08:24.307Z,100171.41
2022-12-07T02:10:52.854Z,100168.53
2022-12-07T02:13:29.589Z,100156.84
2022-12-07T02:16:08.953Z,100151.91
2022-12-07T02:18:46.179Z,100152.78
2022-12-07T02:21:18.318Z,100145.22
2022-12-07T02:23:55.855Z,100142.78
2022-12-07T02:26:47.845Z,100136.53
2022-12-07T02:29:26.238Z,100140.13
2022-12-07T02:32:00.113Z,100140.31
2022-12-07T02:34:44.130Z,100153.94
2022-12-07T02:37:31.290Z,100146.13
2022-12-07T02:40:07.882Z,100147.78
2022-12-07T02:42:41.031Z,100141.38
2022-12-07T02:45:17.853Z,100126.91
2022-12-07T02:47:48.749Z,100145.84
2022-12-07T02:50:19.757Z,100145.63
2022-12-07T02:52:50.541Z,100137.69
2022-12-07T02:55:21.677Z,100129.25
2022-12-07T02:58:00.046Z,100127.84
2022-12-07T03:00:29.282Z,100122.88
2022-12-07T03:03:00.433Z,100121.81
2022-12-07T03:05:44.187Z,100120.66
2022-12-07T03:08:15.589Z,100117.41
2022-12-07T03:10:49.361Z,100121.03
2022-12-07T03:13:22.187Z,100117.03
2022-12-07T03:16:05.579Z,100123.91
2022-12-07T03:18:37.954Z,100122.41
2022-12-07T03:21:08.732Z,100121.00
2022-12-07T03:23:39.473Z,100130.03
2022-12-07T03:26:11.025Z,100126.53
2022-12-07T03:28:42.483Z,100126.88
2022-12-07T03:31:14.633Z,100121.47
2022-12-07T03:33:48.312Z,100120.25
2022-12-07T03:36:23.144Z,100115.75
2022-12-07T03:38:54.144Z,100121.09
2022-12-07T03:41:24.707Z,100116.81
2022-12-07T03:43:53.410Z,100126.31
2022-12-07T03:46:28.562Z,100118.63
2022-12-07T03:49:01.674Z,100117.72
2022-12-07T03:51:33.353Z,100114.25
2022-12-07T03:54:07.771Z,100115.09
2022-12-07T04:58:48.075Z,100093.28
2022-12-07T05:01:21.621Z,100090.91
2022-12-07T05:03:49.633Z,100098.38
2022-12-07T05:06:17.676Z,100096.56
2022-12-07T05:08:45.750Z,100085.81
2022-12-07T05:11:35.217Z,100091.03
2022-12-07T05:14:04.426Z,100090.78
2022-12-07T05:16:33.743Z,100087.44
2022-12-07T05:19:01.710Z,100090.78
2022-12-07T05:21:29.648Z,100090.03
2022-12-07T05:23:57.743Z,100090.91
2022-12-07T05:26:28.655Z,100099.47
2022-12-07T05:28:59.423Z,100094.69
2022-12-07T05:31:28.303Z,100091.66
2022-12-07T05:33:57.878Z,100101.06
2022-12-07T05:36:25.959Z,100099.66
2022-12-07T05:38:54.457Z,100093.84
2022-12-07T05:41:39.924Z,100082.78
2022-12-07T05:44:08.265Z,100097.41
2022-12-07T05:46:36.338Z,100102.47
2022-12-07T05:49:05.651Z,100096.19
2022-12-07T05:51:33.545Z,100101.00
2022-12-07T05:54:01.635Z,100098.38
2022-12-07T05:56:29.618Z,100096.09
2022-12-07T05:59:15.037Z,100105.81
2022-12-07T06:01:42.915Z,100102.72
2022-12-07T06:04:12.912Z,100101.06
2022-12-07T06:06:41.011Z,100095.31
2022-12-07T06:09:09.214Z,100090.06
2022-12-07T06:11:54.675Z,100092.25
2022-12-07T06:14:22.993Z,100091.66
2022-12-07T06:16:51.047Z,100082.13
2022-12-07T06:19:20.593Z,100086.78
2022-12-07T06:21:48.706Z,100093.09
2022-12-07T06:24:17.591Z,100093.44
2022-12-07T06:26:45.764Z,100084.59
2022-12-07T06:29:14.388Z,100089.41
2022-12-07T06:31:42.507Z,100094.81
2022-12-07T06:34:12.736Z,100092.69
2022-12-07T06:36:41.985Z,100090.25
2022-12-07T06:39:10.443Z,100101.00
2022-12-07T06:41:39.026Z,100097.06
2022-12-07T06:44:07.038Z,100103.16
2022-12-07T06:46:37.345Z,100103.38
2022-12-07T06:49:05.764Z,100100.16
2022-12-07T06:51:33.735Z,100102.84
2022-12-07T06:54:03.119Z,100097.31
2022-12-07T06:56:31.245Z,100095.63
2022-12-07T06:58:59.531Z,100098.03
2022-12-07T07:01:27.728Z,100102.09
2022-12-07T07:03:55.719Z,100099.88
2022-12-07T07:06:25.958Z,100101.91
2022-12-07T07:08:54.099Z,100112.31
2022-12-07T07:11:25.232Z,100105.06
2022-12-07T07:13:53.212Z,100109.31
2022-12-07T07:16:23.442Z,100106.41
2022-12-07T07:18:51.374Z,100102.94
2022-12-07T07:21:19.369Z,100110.84
2022-12-07T07:23:49.482Z,100114.88
2022-12-07T07:26:22.820Z,100115.34
2022-12-07T07:28:52.682Z,100112.75
2022-12-07T07:31:21.398Z,100124.44
2022-12-07T07:33:49.602Z,100119.50
2022-12-07T07:36:17.591Z,100123.19
2022-12-07T07:38:45.581Z,100125.06
2022-12-07T07:41:13.753Z,100131.25
2022-12-07T07:43:41.749Z,100132.72
2022-12-07T07:46:14.345Z,100129.19
2022-12-07T07:48:42.646Z,100123.75
2022-12-07T07:51:17.485Z,100129.47
2022-12-07T07:53:48.803Z,100134.19
2022-12-07T07:56:17.509Z,100135.78
2022-12-07T07:58:45.508Z,100137.06
2022-12-07T08:01:16.328Z,100134.75
2022-12-07T08:03:44.427Z,100140.19
2022-12-07T08:06:12.582Z,100134.19
2022-12-07T08:08:43.142Z,100142.25
2022-12-07T08:11:11.976Z,100137.66
2022-12-07T08:13:40.714Z,100146.09
2022-12-07T08:16:10.422Z,100141.41
2022-12-07T08:18:40.877Z,100136.97
2022-12-07T08:21:10.045Z,100145.09
2022-12-07T08:23:40.108Z,100144.34
2022-12-07T08:26:09.769Z,100147.78
2022-12-07T08:28:38.353Z,100143.75
2022-12-07T08:31:08.302Z,100148.84
2022-12-07T08:33:36.940Z,100148.06
2022-12-07T08:36:09.665Z,100145.72
2022-12-07T08:38:39.351Z,100146.28
2022-12-07T08:41:08.433Z,100144.50
2022-12-07T08:43:37.153Z,100145.53
2022-12-07T08:46:10.673Z,100146.94
2022-12-07T08:48:41.896Z,100152.56
2022-12-07T08:51:11.663Z,100150.22
2022-12-07T08:53:40.502Z,100146.94
2022-12-07T08:56:10.298Z,100146.50
2022-12-07T08:58:39.693Z,100149.56
2022-12-07T09:01:08.455Z,100137.19
2022-12-07T09:03:36.560Z,100148.03
2022-12-07T09:06:05.649Z,100153.16
2022-12-07T09:08:39.469Z,100143.59
2022-12-07T09:11:07.651Z,100150.47
2022-12-07T09:13:36.427Z,100156.66
2022-12-07T09:16:05.242Z,100150.59
2022-12-07T09:18:33.565Z,100152.22
2022-12-07T09:21:01.475Z,100155.53
2022-12-07T09:23:29.859Z,100156.84
2022-12-07T09:26:03.791Z,100157.22
2022-12-07T09:28:35.785Z,100156.03
2022-12-07T09:33:55.563Z,100162.78
2022-12-07T09:36:24.081Z,100157.97
2022-12-07T09:38:52.243Z,100163.25
2022-12-07T09:41:23.367Z,100161.25
2022-12-07T09:43:52.568Z,100153.16
2022-12-07T09:46:22.053Z,100153.97
2022-12-07T09:48:52.884Z,100156.88
2022-12-07T09:51:25.321Z,100160.72
2022-12-07T09:53:53.870Z,100146.16
2022-12-07T09:56:24.671Z,100151.94
2022-12-07T09:59:02.307Z,100153.94
2022-12-07T10:01:31.618Z,100152.06
2022-12-07T10:04:06.227Z,100149.50
2022-12-07T10:06:34.276Z,100152.53
2022-12-07T10:09:05.072Z,100147.09
2022-12-07T10:11:35.642Z,100145.03
2022-12-07T10:14:13.788Z,100145.19
2022-12-07T10:16:42.840Z,100145.94
2022-12-07T10:19:28.943Z,100130.41
2022-12-07T10:22:04.305Z,100139.19
2022-12-07T10:24:32.683Z,100135.84
2022-12-07T10:27:02.142Z,100125.84
2022-12-07T10:29:32.175Z,100131.19
2022-12-07T10:32:03.219Z,100126.91
2022-12-07T10:34:36.516Z,100127.00
2022-12-07T10:37:17.334Z,100123.78
2022-12-07T10:39:47.721Z,100115.16
2022-12-07T10:42:24.002Z,100123.94
2022-12-07T10:44:54.076Z,100115.94
2022-12-07T10:47:27.268Z,100118.00
2022-12-07T10:50:08.464Z,100117.03
2022-12-07T10:52:42.566Z,100118.91
2022-12-07T10:55:18.051Z,100112.31
2022-12-07T10:57:53.995Z,100111.44
2022-12-07T11:00:24.029Z,100100.22
2022-12-07T11:02:58.011Z,100096.97
2022-12-07T11:05:28.706Z,100088.97
2022-12-07T11:08:02.472Z,100088.31
2022-12-07T11:10:40.644Z,100095.19
2022-12-07T11:13:26.622Z,100080.50
2022-12-07T11:16:04.210Z,100080.72
2022-12-07T11:18:36.323Z,100084.31
2022-12-07T11:21:08.737Z,100086.28
2022-12-07T11:23:42.383Z,100077.22
2022-12-07T11:26:16.097Z,100084.25
2022-12-07T11:28:57.120Z,100080.28
2022-12-07T11:31:32.556Z,100076.47
2022-12-07T11:34:03.076Z,100080.84
2022-12-07T11:36:35.561Z,100070.00
2022-12-07T11:39:04.724Z,100075.50
2022-12-07T11:41:35.157Z,100071.31
2022-12-07T11:44:08.176Z,100063.69
2022-12-07T11:46:44.223Z,100060.44
2022-12-07T11:49:14.707Z,100064.97
2022-12-07T11:51:42.947Z,100062.69
2022-12-07T11:54:14.866Z,100055.31
2022-12-07T11:56:42.728Z,100059.41
2022-12-07T11:59:15.891Z,100056.16
2022-12-07T12:01:49.999Z,100038.84
2022-12-07T12:04:26.386Z,100036.78
2022-12-07T12:06:56.592Z,100042.22
2022-12-07T12:15:22.307Z,100031.91
2022-12-07T12:17:55.511Z,100037.16
2022-12-07T12:20:25.691Z,100024.63
2022-12-07T12:22:56.417Z,100026.78
2022-12-07T12:25:26.100Z,100028.28
2022-12-07T12:27:56.367Z,100020.31
2022-12-07T12:30:33.782Z,100019.41
2022-12-07T12:33:10.279Z,100021.56
2022-12-07T12:35:39.190Z,100016.69
2022-12-07T12:38:27.923Z,100013.69
2022-12-07T12:40:58.177Z,100012.56
2022-12-07T12:43:59.195Z,100009.97
2022-12-07T12:46:53.975Z,100012.94
2022-12-07T12:49:46.012Z,100009.31
2022-12-07T12:52:32.501Z,99998.53
2022-12-07T12:55:04.344Z,99999.16
2022-12-07T12:57:33.563Z,99995.03
2022-12-07T13:00:02.002Z,99988.81
2022-12-07T13:02:32.059Z,99990.66
2022-12-07T13:05:02.011Z,99994.13
2022-12-07T13:07:52.417Z,99987.28
2022-12-07T13:10:34.743Z,99986.06
2022-12-07T13:13:04.262Z,99988.16
2022-12-07T13:15:36.832Z,99991.56
2022-12-07T13:18:06.618Z,99983.34
2022-12-07T13:20:48.642Z,99985.94
2022-12-07T13:23:18.881Z,99983.72
2022-12-07T13:25:55.426Z,99984.19
2022-12-07T13:28:27.366Z,99980.34
2022-12-07T13:31:16.570Z,99977.81
2022-12-07T13:33:45.336Z,99975.75
2022-12-07T13:36:18.606Z,99974.16
2022-12-07T13:38:51.086Z,99972.53
2022-12-07T13:41:23.984Z,99976.28
2022-12-07T13:43:53.739Z,99968.00
2022-12-07T13:46:26.678Z,99975.44
2022-12-07T13:48:56.640Z,99969.53
2022-12-07T13:51:26.064Z,99981.88
2022-12-07T13:53:55.161Z,99972.97
2022-12-07T13:56:28.829Z,99982.03
2022-12-07T13:58:57.376Z,99959.72
2022-12-07T14:01:26.181Z,99959.66
2022-12-07T14:03:55.358Z,99959.22
2022-12-07T14:06:27.872Z,99962.09
2022-12-07T14:09:08.661Z,99960.53
2022-12-07T14:11:38.034Z,99968.50
2022-12-07T14:14:07.080Z,99965.50
2022-12-07T14:16:39.988Z,99967.34
2022-12-07T14:19:28.111Z,99962.59
2022-12-07T14:22:08.100Z,99965.50
2022-12-07T14:24:43.501Z,99961.94
2022-12-07T14:27:20.824Z,99965.25
2022-12-07T14:29:51.674Z,99964.56
2022-12-07T14:32:29.180Z,99965.63
2022-12-07T14:34:58.421Z,99956.03
2022-12-07T14:37:26.226Z,99960.78
2022-12-07T14:39:54.483Z,99957.75
2022-12-07T14:42:27.434Z,99953.78
2022-12-07T14:44:55.527Z,99954.31
2022-12-07T14:50:13.985Z,99955.06
2022-12-07T14:55:33.442Z,99952.50
2022-12-07T14:58:03.800Z,99948.88
2022-12-07T15:00:32.220Z,99951.06
2022-12-07T15:03:00.354Z,99950.31
2022-12-07T15:05:28.878Z,99958.28
2022-12-07T15:07:57.178Z,99964.00
2022-12-07T15:10:34.787Z,99960.88
2022-12-07T15:13:22.876Z,99952.66
2022-12-07T15:15:52.394Z,99962.69
2022-12-07T15:18:20.652Z,99953.22
2022-12-07T15:20:55.242Z,99948.91
2022-12-07T15:23:24.361Z,99947.31
2022-12-07T15:25:54.348Z,99946.09
2022-12-07T15:28:24.334Z,99944.69
2022-12-07T15:30:53.206Z,99939.56
2022-12-07T15:33:23.594Z,99936.81
2022-12-07T15:35:53.587Z,99937.03
2022-12-07T15:38:39.460Z,99933.38
2022-12-07T15:41:11.455Z,99935.63
2022-12-07T15:43:55.198Z,99934.22
2022-12-07T15:46:23.323Z,99936.69
2022-12-07T15:48:52.916Z,99931.75
2022-12-07T15:51:24.667Z,99926.97
2022-12-07T15:53:55.946Z,99930.69
2022-12-07T15:56:25.553Z,99929.53
2022-12-07T15:58:59.990Z,99922.06
2022-12-07T16:01:28.650Z,99925.84
2022-12-07T16:03:56.832Z,99912.03
2022-12-07T16:06:27.405Z,99920.84
2022-12-07T16:08:58.888Z,99915.44
2022-12-07T16:11:27.350Z,99921.13
2022-12-07T16:13:58.717Z,99922.09
2022-12-07T16:16:28.125Z,99914.69
2022-12-07T16:19:00.302Z,99907.78
2022-12-07T16:21:29.659Z,99911.84
2022-12-07T16:24:07.039Z,99902.19
2022-12-07T16:26:35.370Z,99903.75
2022-12-07T16:29:24.043Z,99910.38
2022-12-07T16:31:58.487Z,99901.88
2022-12-07T16:34:27.109Z,99898.72
2022-12-07T16:37:06.343Z,99903.88
2022-12-07T16:39:35.142Z,99903.06
2022-12-07T16:42:03.555Z,99900.28
2022-12-07T16:44:32.776Z,99903.66
2022-12-07T16:47:06.525Z,99900.28
2022-12-07T16:49:35.478Z,99902.66
2022-12-07T16:52:19.946Z,99899.13
2022-12-07T16:54:54.860Z,99897.84
2022-12-07T16:57:26.111Z,99899.53
2022-12-07T16:59:56.908Z,99898.69
2022-12-07T17:02:31.236Z,99896.06
2022-12-07T17:04:59.481Z,99893.19
2022-12-07T17:07:28.637Z,99893.59
2022-12-07T17:09:57.858Z,99894.84
2022-12-07T17:12:26.931Z,99889.56
2022-12-07T17:15:14.016Z,99894.31
2022-12-07T17:17:53.488Z,99899.69
2022-12-07T17:20:24.372Z,99895.78
2022-12-07T17:22:54.005Z,99899.78
2022-12-07T17:25:23.768Z,99894.38
2022-12-07T17:27:55.347Z,99897.44
2022-12-07T17:30:27.009Z,99898.34
2022-12-07T17:33:01.454Z,99901.44
2022-12-07T17:35:32.755Z,99897.97
2022-12-07T17:38:03.746Z,99899.53
2022-12-07T17:40:45.568Z,99885.75
2022-12-07T17:43:16.178Z,99893.63
2022-12-07T17:45:59.285Z,99888.34
2022-12-07T17:48:41.155Z,99887.69
2022-12-07T17:51:43.462Z,99882.41
2022-12-07T17:57:22.178Z,99875.81
2022-12-07T18:51:34.805Z,99847.50
2022-12-07T19:21:51.278Z,99839.81
2022-12-07T19:24:35.198Z,99838.69
2022-12-07T19:33:17.904Z,99833.47
2022-12-07T19:35:55.839Z,99828.00
2022-12-07T19:38:30.966Z,99831.69
2022-12-07T19:41:21.063Z,99842.38
2022-12-07T19:43:50.733Z,99838.38
2022-12-07T19:46:32.066Z,99833.06
2022-12-07T19:49:12.261Z,99837.34
2022-12-07T19:54:30.520Z,99822.03
2022-12-07T19:57:00.164Z,99827.88
2022-12-07T19:59:43.718Z,99824.16
2022-12-07T20:02:16.450Z,99825.22
2022-12-07T20:04:55.310Z,99813.53
2022-12-07T20:10:46.197Z,99817.09
2022-12-07T20:45:09.879Z,99792.69
2022-12-07T21:02:27.199Z,99787.13
2022-12-07T21:26:20.155Z,99770.19
2022-12-07T21:28:53.464Z,99767.22
2022-12-07T21:31:25.164Z,99764.19
2022-12-07T21:34:00.894Z,99767.19
2022-12-07T22:40:20.420Z,99733.03
2022-12-07T22:43:03.965Z,99719.72
2022-12-07T22:45:40.134Z,99711.38
2022-12-07T22:48:13.164Z,99713.19
2022-12-07T22:50:44.325Z,99716.66
2022-12-07T22:53:20.111Z,99710.69
2022-12-07T22:56:08.124Z,99710.53
2022-12-07T22:58:45.006Z,99708.25
2022-12-07T23:04:12.167Z,99700.75
2022-12-07T23:06:48.663Z,99703.16
2022-12-07T23:09:37.725Z,99699.41
2022-12-07T23:12:26.883Z,99696.97
2022-12-07T23:14:55.486Z,99698.56
2022-12-07T23:20:30.226Z,99692.22
2022-12-07T23:23:01.548Z,99689.94
2022-12-07T23:52:26.679Z,99667.44
